sensor_id;sensor_type;location;lat;lon;timestamp;P1;durP1;ratioP1;P2;durP2;ratioP2
80425;SDS011;69766;51.476;5.704;2023-08-31T00:00:41;6.88;;;3.90;;
80425;SDS011;69766;51.476;5.704;2023-08-31T00:03:08;6.82;;;4.00;;
80425;SDS011;69766;51.476;5.704;2023-08-31T00:05:38;6.40;;;3.63;;
80425;SDS011;69766;51.476;5.704;2023-08-31T00:08:06;6.03;;;4.10;;
80425;SDS011;69766;51.476;5.704;2023-08-31T00:10:32;8.32;;;4.07;;
80425;SDS011;69766;51.476;5.704;2023-08-31T00:12:59;9.00;;;4.30;;
80425;SDS011;69766;51.476;5.704;2023-08-31T00:15:24;8.02;;;4.55;;
80425;SDS011;69766;51.476;5.704;2023-08-31T00:17:50;7.45;;;4.35;;
80425;SDS011;69766;51.476;5.704;2023-08-31T00:26:36;10.77;;;5.72;;
80425;SDS011;69766;51.476;5.704;2023-08-31T00:29:11;12.10;;;5.78;;
80425;SDS011;69766;51.476;5.704;2023-08-31T00:31:41;10.90;;;5.88;;
80425;SDS011;69766;51.476;5.704;2023-08-31T00:34:12;13.48;;;6.45;;
80425;SDS011;69766;51.476;5.704;2023-08-31T00:36:39;10.07;;;5.50;;
80425;SDS011;69766;51.476;5.704;2023-08-31T00:39:08;9.13;;;5.75;;
80425;SDS011;69766;51.476;5.704;2023-08-31T00:41:36;9.82;;;5.80;;
80425;SDS011;69766;51.476;5.704;2023-08-31T00:44:01;10.13;;;6.78;;
80425;SDS011;69766;51.476;5.704;2023-08-31T00:46:29;10.05;;;6.28;;
80425;SDS011;69766;51.476;5.704;2023-08-31T00:55:23;14.65;;;7.40;;
80425;SDS011;69766;51.476;5.704;2023-08-31T00:57:51;12.63;;;6.75;;
80425;SDS011;69766;51.476;5.704;2023-08-31T01:00:17;11.18;;;6.57;;
80425;SDS011;69766;51.476;5.704;2023-08-31T01:05:50;11.82;;;6.65;;
80425;SDS011;69766;51.476;5.704;2023-08-31T01:13:38;14.02;;;6.90;;
80425;SDS011;69766;51.476;5.704;2023-08-31T01:16:09;11.13;;;6.45;;
80425;SDS011;69766;51.476;5.704;2023-08-31T01:18:40;14.07;;;8.07;;
80425;SDS011;69766;51.476;5.704;2023-08-31T01:21:25;11.93;;;7.73;;
80425;SDS011;69766;51.476;5.704;2023-08-31T01:23:56;11.73;;;7.70;;
80425;SDS011;69766;51.476;5.704;2023-08-31T01:26:23;12.55;;;7.70;;
80425;SDS011;69766;51.476;5.704;2023-08-31T01:28:51;12.90;;;7.80;;
80425;SDS011;69766;51.476;5.704;2023-08-31T01:31:17;14.63;;;8.00;;
80425;SDS011;69766;51.476;5.704;2023-08-31T01:33:43;15.75;;;8.38;;
80425;SDS011;69766;51.476;5.704;2023-08-31T01:36:15;13.15;;;7.95;;
80425;SDS011;69766;51.476;5.704;2023-08-31T01:39:06;13.57;;;9.13;;
80425;SDS011;69766;51.476;5.704;2023-08-31T01:41:36;15.45;;;8.55;;
80425;SDS011;69766;51.476;5.704;2023-08-31T01:44:08;14.23;;;9.93;;
80425;SDS011;69766;51.476;5.704;2023-08-31T01:46:39;16.50;;;9.68;;
80425;SDS011;69766;51.476;5.704;2023-08-31T01:52:13;16.45;;;9.60;;
80425;SDS011;69766;51.476;5.704;2023-08-31T01:54:39;14.38;;;8.85;;
80425;SDS011;69766;51.476;5.704;2023-08-31T01:57:05;14.80;;;9.85;;
80425;SDS011;69766;51.476;5.704;2023-08-31T01:59:46;15.77;;;9.48;;
80425;SDS011;69766;51.476;5.704;2023-08-31T02:02:12;15.50;;;10.27;;
80425;SDS011;69766;51.476;5.704;2023-08-31T02:04:40;17.08;;;11.05;;
80425;SDS011;69766;51.476;5.704;2023-08-31T02:09:36;18.63;;;11.00;;
80425;SDS011;69766;51.476;5.704;2023-08-31T02:12:04;19.00;;;11.07;;
80425;SDS011;69766;51.476;5.704;2023-08-31T02:14:30;20.17;;;11.57;;
80425;SDS011;69766;51.476;5.704;2023-08-31T02:16:56;18.23;;;10.88;;
80425;SDS011;69766;51.476;5.704;2023-08-31T02:19:21;19.77;;;11.52;;
80425;SDS011;69766;51.476;5.704;2023-08-31T02:28:12;19.63;;;11.45;;
80425;SDS011;69766;51.476;5.704;2023-08-31T02:30:38;18.30;;;11.85;;
80425;SDS011;69766;51.476;5.704;2023-08-31T02:33:03;20.02;;;11.93;;
80425;SDS011;69766;51.476;5.704;2023-08-31T02:35:29;18.80;;;11.73;;
80425;SDS011;69766;51.476;5.704;2023-08-31T02:37:55;19.70;;;11.93;;
80425;SDS011;69766;51.476;5.704;2023-08-31T02:40:21;18.88;;;11.05;;
80425;SDS011;69766;51.476;5.704;2023-08-31T02:42:50;18.88;;;11.00;;
80425;SDS011;69766;51.476;5.704;2023-08-31T02:45:18;18.80;;;10.88;;
80425;SDS011;69766;51.476;5.704;2023-08-31T02:47:44;21.42;;;11.68;;
80425;SDS011;69766;51.476;5.704;2023-08-31T02:50:10;16.75;;;10.77;;
80425;SDS011;69766;51.476;5.704;2023-08-31T02:59:03;19.55;;;10.75;;
80425;SDS011;69766;51.476;5.704;2023-08-31T03:01:32;17.77;;;11.43;;
80425;SDS011;69766;51.476;5.704;2023-08-31T03:03:58;18.65;;;11.07;;
80425;SDS011;69766;51.476;5.704;2023-08-31T03:06:25;18.60;;;10.65;;
80425;SDS011;69766;51.476;5.704;2023-08-31T03:08:51;19.38;;;11.15;;
80425;SDS011;69766;51.476;5.704;2023-08-31T03:11:16;18.40;;;11.02;;
80425;SDS011;69766;51.476;5.704;2023-08-31T03:13:45;19.33;;;11.63;;
80425;SDS011;69766;51.476;5.704;2023-08-31T03:20:12;18.92;;;12.43;;
80425;SDS011;69766;51.476;5.704;2023-08-31T03:22:40;18.70;;;12.65;;
80425;SDS011;69766;51.476;5.704;2023-08-31T03:25:09;20.13;;;12.27;;
80425;SDS011;69766;51.476;5.704;2023-08-31T03:27:35;23.05;;;12.88;;
80425;SDS011;69766;51.476;5.704;2023-08-31T03:30:01;20.75;;;12.93;;
80425;SDS011;69766;51.476;5.704;2023-08-31T03:32:28;25.67;;;14.07;;
80425;SDS011;69766;51.476;5.704;2023-08-31T03:34:53;24.73;;;14.48;;
80425;SDS011;69766;51.476;5.704;2023-08-31T03:37:19;20.02;;;12.85;;
80425;SDS011;69766;51.476;5.704;2023-08-31T03:39:47;20.33;;;12.38;;
80425;SDS011;69766;51.476;5.704;2023-08-31T03:42:13;26.40;;;14.70;;
80425;SDS011;69766;51.476;5.704;2023-08-31T03:44:42;21.85;;;13.25;;
80425;SDS011;69766;51.476;5.704;2023-08-31T03:47:07;19.83;;;12.90;;
80425;SDS011;69766;51.476;5.704;2023-08-31T03:49:33;20.33;;;14.38;;
80425;SDS011;69766;51.476;5.704;2023-08-31T03:52:00;25.75;;;14.20;;
80425;SDS011;69766;51.476;5.704;2023-08-31T03:54:26;23.90;;;14.13;;
80425;SDS011;69766;51.476;5.704;2023-08-31T03:56:51;22.42;;;13.63;;
80425;SDS011;69766;51.476;5.704;2023-08-31T03:59:17;25.55;;;13.68;;
80425;SDS011;69766;51.476;5.704;2023-08-31T04:01:43;30.60;;;14.40;;
80425;SDS011;69766;51.476;5.704;2023-08-31T04:04:09;24.17;;;13.73;;
80425;SDS011;69766;51.476;5.704;2023-08-31T04:06:35;26.38;;;14.88;;
80425;SDS011;69766;51.476;5.704;2023-08-31T04:09:03;25.55;;;15.60;;
80425;SDS011;69766;51.476;5.704;2023-08-31T04:11:29;27.50;;;14.98;;
80425;SDS011;69766;51.476;5.704;2023-08-31T04:13:55;26.38;;;15.38;;
80425;SDS011;69766;51.476;5.704;2023-08-31T04:16:20;26.35;;;15.48;;
80425;SDS011;69766;51.476;5.704;2023-08-31T04:18:46;25.05;;;14.55;;
80425;SDS011;69766;51.476;5.704;2023-08-31T04:21:19;26.48;;;14.63;;
80425;SDS011;69766;51.476;5.704;2023-08-31T04:23:45;34.10;;;16.20;;
80425;SDS011;69766;51.476;5.704;2023-08-31T04:26:14;24.10;;;14.55;;
80425;SDS011;69766;51.476;5.704;2023-08-31T04:28:43;26.85;;;15.38;;
80425;SDS011;69766;51.476;5.704;2023-08-31T04:31:09;29.95;;;15.65;;
80425;SDS011;69766;51.476;5.704;2023-08-31T04:33:36;25.88;;;15.25;;
80425;SDS011;69766;51.476;5.704;2023-08-31T04:36:03;25.45;;;14.70;;
80425;SDS011;69766;51.476;5.704;2023-08-31T04:38:29;26.67;;;14.48;;
80425;SDS011;69766;51.476;5.704;2023-08-31T04:41:05;24.25;;;13.68;;
80425;SDS011;69766;51.476;5.704;2023-08-31T04:43:31;24.08;;;14.48;;
80425;SDS011;69766;51.476;5.704;2023-08-31T04:46:09;23.42;;;13.77;;
80425;SDS011;69766;51.476;5.704;2023-08-31T04:48:35;27.05;;;13.63;;
80425;SDS011;69766;51.476;5.704;2023-08-31T04:51:04;19.83;;;13.32;;
80425;SDS011;69766;51.476;5.704;2023-08-31T04:53:30;20.67;;;12.55;;
80425;SDS011;69766;51.476;5.704;2023-08-31T04:55:57;27.40;;;13.98;;
80425;SDS011;69766;51.476;5.704;2023-08-31T04:58:23;27.10;;;14.45;;
80425;SDS011;69766;51.476;5.704;2023-08-31T05:00:51;25.02;;;13.13;;
80425;SDS011;69766;51.476;5.704;2023-08-31T05:03:16;22.67;;;13.95;;
80425;SDS011;69766;51.476;5.704;2023-08-31T05:05:42;28.75;;;13.60;;
80425;SDS011;69766;51.476;5.704;2023-08-31T05:08:09;24.00;;;13.70;;
80425;SDS011;69766;51.476;5.704;2023-08-31T05:10:34;24.40;;;13.95;;
80425;SDS011;69766;51.476;5.704;2023-08-31T05:13:09;24.10;;;12.63;;
80425;SDS011;69766;51.476;5.704;2023-08-31T05:15:37;25.85;;;13.38;;
80425;SDS011;69766;51.476;5.704;2023-08-31T05:18:09;21.40;;;12.85;;
80425;SDS011;69766;51.476;5.704;2023-08-31T05:20:35;23.70;;;13.98;;
80425;SDS011;69766;51.476;5.704;2023-08-31T05:23:01;25.10;;;13.88;;
80425;SDS011;69766;51.476;5.704;2023-08-31T05:25:28;27.35;;;12.73;;
80425;SDS011;69766;51.476;5.704;2023-08-31T05:27:53;24.10;;;12.35;;
80425;SDS011;69766;51.476;5.704;2023-08-31T05:30:19;27.95;;;13.32;;
80425;SDS011;69766;51.476;5.704;2023-08-31T05:32:45;23.60;;;12.95;;
80425;SDS011;69766;51.476;5.704;2023-08-31T05:35:11;25.48;;;12.75;;
80425;SDS011;69766;51.476;5.704;2023-08-31T05:37:37;21.35;;;13.30;;
80425;SDS011;69766;51.476;5.704;2023-08-31T05:40:03;24.40;;;12.10;;
80425;SDS011;69766;51.476;5.704;2023-08-31T05:42:38;22.35;;;11.90;;
80425;SDS011;69766;51.476;5.704;2023-08-31T05:45:04;20.20;;;11.05;;
80425;SDS011;69766;51.476;5.704;2023-08-31T05:47:30;22.70;;;11.10;;
80425;SDS011;69766;51.476;5.704;2023-08-31T05:49:56;16.85;;;10.77;;
80425;SDS011;69766;51.476;5.704;2023-08-31T05:52:22;19.30;;;9.88;;
80425;SDS011;69766;51.476;5.704;2023-08-31T05:54:48;16.10;;;9.55;;
80425;SDS011;69766;51.476;5.704;2023-08-31T05:57:23;18.02;;;10.38;;
80425;SDS011;69766;51.476;5.704;2023-08-31T05:59:49;19.52;;;10.20;;
80425;SDS011;69766;51.476;5.704;2023-08-31T06:02:15;21.52;;;10.02;;
80425;SDS011;69766;51.476;5.704;2023-08-31T06:04:40;17.17;;;10.23;;
80425;SDS011;69766;51.476;5.704;2023-08-31T06:07:06;19.55;;;10.98;;
80425;SDS011;69766;51.476;5.704;2023-08-31T06:09:35;22.88;;;11.07;;
80425;SDS011;69766;51.476;5.704;2023-08-31T06:12:01;19.50;;;10.43;;
80425;SDS011;69766;51.476;5.704;2023-08-31T06:17:54;22.10;;;10.18;;
80425;SDS011;69766;51.476;5.704;2023-08-31T06:20:26;17.27;;;9.82;;
80425;SDS011;69766;51.476;5.704;2023-08-31T06:22:52;19.48;;;9.40;;
80425;SDS011;69766;51.476;5.704;2023-08-31T06:25:18;18.35;;;10.15;;
80425;SDS011;69766;51.476;5.704;2023-08-31T06:27:44;16.65;;;9.75;;
80425;SDS011;69766;51.476;5.704;2023-08-31T06:30:10;20.02;;;9.63;;
80425;SDS011;69766;51.476;5.704;2023-08-31T06:32:47;16.75;;;9.20;;
80425;SDS011;69766;51.476;5.704;2023-08-31T06:35:13;17.35;;;9.43;;
80425;SDS011;69766;51.476;5.704;2023-08-31T06:37:45;16.92;;;9.18;;
80425;SDS011;69766;51.476;5.704;2023-08-31T06:40:12;13.80;;;7.93;;
80425;SDS011;69766;51.476;5.704;2023-08-31T06:42:38;15.27;;;8.85;;
80425;SDS011;69766;51.476;5.704;2023-08-31T06:45:05;14.02;;;8.40;;
80425;SDS011;69766;51.476;5.704;2023-08-31T06:47:32;13.77;;;8.55;;
80425;SDS011;69766;51.476;5.704;2023-08-31T06:49:58;16.90;;;8.07;;
80425;SDS011;69766;51.476;5.704;2023-08-31T06:52:27;14.23;;;9.25;;
80425;SDS011;69766;51.476;5.704;2023-08-31T06:54:53;18.60;;;9.25;;
80425;SDS011;69766;51.476;5.704;2023-08-31T06:57:22;15.73;;;8.23;;
80425;SDS011;69766;51.476;5.704;2023-08-31T06:59:48;13.18;;;8.32;;
80425;SDS011;69766;51.476;5.704;2023-08-31T07:02:14;14.18;;;8.10;;
80425;SDS011;69766;51.476;5.704;2023-08-31T07:04:40;14.13;;;8.07;;
80425;SDS011;69766;51.476;5.704;2023-08-31T07:07:06;13.48;;;7.53;;
80425;SDS011;69766;51.476;5.704;2023-08-31T07:09:33;13.00;;;7.75;;
80425;SDS011;69766;51.476;5.704;2023-08-31T07:11:59;14.50;;;7.78;;
80425;SDS011;69766;51.476;5.704;2023-08-31T07:14:26;12.90;;;7.05;;
80425;SDS011;69766;51.476;5.704;2023-08-31T07:16:52;14.73;;;7.20;;
80425;SDS011;69766;51.476;5.704;2023-08-31T07:19:17;18.75;;;7.43;;
80425;SDS011;69766;51.476;5.704;2023-08-31T07:21:43;14.63;;;7.57;;
80425;SDS011;69766;51.476;5.704;2023-08-31T07:24:09;14.27;;;7.70;;
80425;SDS011;69766;51.476;5.704;2023-08-31T07:26:35;12.25;;;6.65;;
80425;SDS011;69766;51.476;5.704;2023-08-31T07:29:01;16.15;;;7.85;;
80425;SDS011;69766;51.476;5.704;2023-08-31T07:31:29;13.73;;;7.10;;
80425;SDS011;69766;51.476;5.704;2023-08-31T07:33:56;12.90;;;6.70;;
80425;SDS011;69766;51.476;5.704;2023-08-31T07:36:22;11.00;;;6.47;;
80425;SDS011;69766;51.476;5.704;2023-08-31T07:38:48;15.45;;;7.30;;
80425;SDS011;69766;51.476;5.704;2023-08-31T07:41:14;12.32;;;6.22;;
80425;SDS011;69766;51.476;5.704;2023-08-31T07:43:40;13.35;;;5.82;;
80425;SDS011;69766;51.476;5.704;2023-08-31T07:46:05;10.50;;;6.20;;
80425;SDS011;69766;51.476;5.704;2023-08-31T07:48:31;14.35;;;6.10;;
80425;SDS011;69766;51.476;5.704;2023-08-31T07:51:00;11.65;;;5.18;;
80425;SDS011;69766;51.476;5.704;2023-08-31T07:53:28;12.10;;;5.45;;
80425;SDS011;69766;51.476;5.704;2023-08-31T07:55:54;11.40;;;4.82;;
80425;SDS011;69766;51.476;5.704;2023-08-31T08:01:21;13.68;;;5.93;;
80425;SDS011;69766;51.476;5.704;2023-08-31T08:03:50;9.80;;;5.13;;
80425;SDS011;69766;51.476;5.704;2023-08-31T08:06:16;11.25;;;5.30;;
80425;SDS011;69766;51.476;5.704;2023-08-31T08:08:42;18.80;;;5.30;;
80425;SDS011;69766;51.476;5.704;2023-08-31T08:11:08;11.75;;;4.53;;
80425;SDS011;69766;51.476;5.704;2023-08-31T08:13:34;9.93;;;4.38;;
80425;SDS011;69766;51.476;5.704;2023-08-31T08:15:59;8.38;;;4.35;;
80425;SDS011;69766;51.476;5.704;2023-08-31T08:18:25;9.07;;;4.43;;
80425;SDS011;69766;51.476;5.704;2023-08-31T08:20:51;7.75;;;4.50;;
80425;SDS011;69766;51.476;5.704;2023-08-31T08:23:16;13.70;;;4.57;;
80425;SDS011;69766;51.476;5.704;2023-08-31T08:25:42;10.60;;;4.13;;
80425;SDS011;69766;51.476;5.704;2023-08-31T08:28:08;10.23;;;4.15;;
80425;SDS011;69766;51.476;5.704;2023-08-31T08:30:34;8.65;;;4.30;;
80425;SDS011;69766;51.476;5.704;2023-08-31T08:33:05;10.05;;;4.35;;
80425;SDS011;69766;51.476;5.704;2023-08-31T08:35:30;8.90;;;3.95;;
80425;SDS011;69766;51.476;5.704;2023-08-31T08:37:56;10.00;;;4.30;;
80425;SDS011;69766;51.476;5.704;2023-08-31T08:40:22;10.63;;;4.65;;
80425;SDS011;69766;51.476;5.704;2023-08-31T08:42:47;12.45;;;5.10;;
80425;SDS011;69766;51.476;5.704;2023-08-31T08:45:17;8.20;;;3.92;;
80425;SDS011;69766;51.476;5.704;2023-08-31T08:47:46;7.75;;;4.95;;
80425;SDS011;69766;51.476;5.704;2023-08-31T08:50:16;10.18;;;4.85;;
80425;SDS011;69766;51.476;5.704;2023-08-31T08:52:42;8.30;;;4.35;;
80425;SDS011;69766;51.476;5.704;2023-08-31T08:55:08;9.95;;;4.40;;
80425;SDS011;69766;51.476;5.704;2023-08-31T08:57:34;10.05;;;4.93;;
80425;SDS011;69766;51.476;5.704;2023-08-31T09:00:00;9.75;;;4.53;;
80425;SDS011;69766;51.476;5.704;2023-08-31T09:02:28;8.82;;;5.45;;
80425;SDS011;69766;51.476;5.704;2023-08-31T09:04:53;9.55;;;4.63;;
80425;SDS011;69766;51.476;5.704;2023-08-31T09:07:23;9.82;;;5.55;;
80425;SDS011;69766;51.476;5.704;2023-08-31T09:09:55;9.57;;;4.97;;
80425;SDS011;69766;51.476;5.704;2023-08-31T09:12:22;11.38;;;5.28;;
80425;SDS011;69766;51.476;5.704;2023-08-31T09:15:00;11.52;;;5.07;;
80425;SDS011;69766;51.476;5.704;2023-08-31T09:17:30;9.65;;;4.70;;
80425;SDS011;69766;51.476;5.704;2023-08-31T09:20:03;10.02;;;4.90;;
80425;SDS011;69766;51.476;5.704;2023-08-31T09:22:29;8.38;;;4.43;;
80425;SDS011;69766;51.476;5.704;2023-08-31T09:24:55;10.38;;;5.18;;
80425;SDS011;69766;51.476;5.704;2023-08-31T09:27:21;11.25;;;4.45;;
80425;SDS011;69766;51.476;5.704;2023-08-31T09:29:50;10.43;;;4.40;;
80425;SDS011;69766;51.476;5.704;2023-08-31T09:32:19;7.28;;;3.90;;
80425;SDS011;69766;51.476;5.704;2023-08-31T09:34:45;7.05;;;3.65;;
80425;SDS011;69766;51.476;5.704;2023-08-31T09:37:10;9.23;;;4.45;;
80425;SDS011;69766;51.476;5.704;2023-08-31T09:39:36;7.13;;;3.92;;
80425;SDS011;69766;51.476;5.704;2023-08-31T09:42:05;12.02;;;3.75;;
80425;SDS011;69766;51.476;5.704;2023-08-31T09:44:31;7.65;;;2.70;;
80425;SDS011;69766;51.476;5.704;2023-08-31T09:46:57;9.18;;;2.85;;
80425;SDS011;69766;51.476;5.704;2023-08-31T09:49:23;14.88;;;2.78;;
80425;SDS011;69766;51.476;5.704;2023-08-31T09:51:50;8.20;;;2.75;;
80425;SDS011;69766;51.476;5.704;2023-08-31T09:54:17;6.00;;;2.40;;
80425;SDS011;69766;51.476;5.704;2023-08-31T09:56:48;3.67;;;2.08;;
80425;SDS011;69766;51.476;5.704;2023-08-31T09:59:17;7.85;;;3.03;;
80425;SDS011;69766;51.476;5.704;2023-08-31T10:01:45;4.22;;;2.30;;
80425;SDS011;69766;51.476;5.704;2023-08-31T10:04:11;7.63;;;3.00;;
80425;SDS011;69766;51.476;5.704;2023-08-31T10:06:41;6.65;;;3.20;;
80425;SDS011;69766;51.476;5.704;2023-08-31T10:09:07;7.07;;;2.95;;
80425;SDS011;69766;51.476;5.704;2023-08-31T10:11:37;5.85;;;3.17;;
80425;SDS011;69766;51.476;5.704;2023-08-31T10:14:05;7.50;;;3.10;;
80425;SDS011;69766;51.476;5.704;2023-08-31T10:16:31;6.10;;;2.95;;
80425;SDS011;69766;51.476;5.704;2023-08-31T10:19:00;5.43;;;2.35;;
80425;SDS011;69766;51.476;5.704;2023-08-31T10:21:27;10.35;;;2.58;;
80425;SDS011;69766;51.476;5.704;2023-08-31T10:23:53;8.68;;;3.50;;
80425;SDS011;69766;51.476;5.704;2023-08-31T10:26:37;7.30;;;2.85;;
80425;SDS011;69766;51.476;5.704;2023-08-31T10:29:03;9.05;;;2.47;;
80425;SDS011;69766;51.476;5.704;2023-08-31T10:31:30;5.35;;;2.30;;
80425;SDS011;69766;51.476;5.704;2023-08-31T10:34:01;7.03;;;2.20;;
80425;SDS011;69766;51.476;5.704;2023-08-31T10:39:05;5.38;;;2.25;;
80425;SDS011;69766;51.476;5.704;2023-08-31T10:41:35;4.45;;;1.75;;
80425;SDS011;69766;51.476;5.704;2023-08-31T10:44:01;4.75;;;1.88;;
80425;SDS011;69766;51.476;5.704;2023-08-31T10:46:31;5.57;;;2.10;;
80425;SDS011;69766;51.476;5.704;2023-08-31T10:51:43;6.40;;;1.60;;
80425;SDS011;69766;51.476;5.704;2023-08-31T10:54:11;4.28;;;1.60;;
80425;SDS011;69766;51.476;5.704;2023-08-31T10:59:23;4.72;;;1.65;;
80425;SDS011;69766;51.476;5.704;2023-08-31T11:01:57;6.05;;;2.17;;
80425;SDS011;69766;51.476;5.704;2023-08-31T11:04:26;5.22;;;2.08;;
80425;SDS011;69766;51.476;5.704;2023-08-31T11:09:44;6.00;;;1.50;;
80425;SDS011;69766;51.476;5.704;2023-08-31T11:12:11;5.20;;;1.80;;
80425;SDS011;69766;51.476;5.704;2023-08-31T11:14:38;5.43;;;2.00;;
80425;SDS011;69766;51.476;5.704;2023-08-31T11:17:04;6.28;;;1.90;;
80425;SDS011;69766;51.476;5.704;2023-08-31T11:19:31;5.32;;;2.00;;
80425;SDS011;69766;51.476;5.704;2023-08-31T11:21:58;4.80;;;1.77;;
80425;SDS011;69766;51.476;5.704;2023-08-31T11:24:26;4.68;;;1.90;;
80425;SDS011;69766;51.476;5.704;2023-08-31T11:26:54;4.88;;;1.73;;
80425;SDS011;69766;51.476;5.704;2023-08-31T11:29:20;3.65;;;1.42;;
80425;SDS011;69766;51.476;5.704;2023-08-31T11:31:46;4.78;;;1.67;;
80425;SDS011;69766;51.476;5.704;2023-08-31T11:34:13;7.28;;;2.17;;
80425;SDS011;69766;51.476;5.704;2023-08-31T11:39:08;5.60;;;1.98;;
80425;SDS011;69766;51.476;5.704;2023-08-31T11:41:35;4.63;;;1.70;;
80425;SDS011;69766;51.476;5.704;2023-08-31T11:46:31;6.22;;;1.85;;
80425;SDS011;69766;51.476;5.704;2023-08-31T11:48:59;5.60;;;2.00;;
80425;SDS011;69766;51.476;5.704;2023-08-31T11:51:25;7.07;;;2.05;;
80425;SDS011;69766;51.476;5.704;2023-08-31T11:53:54;8.70;;;2.33;;
80425;SDS011;69766;51.476;5.704;2023-08-31T11:56:21;6.85;;;2.10;;
80425;SDS011;69766;51.476;5.704;2023-08-31T11:58:52;5.93;;;2.30;;
80425;SDS011;69766;51.476;5.704;2023-08-31T12:01:19;7.55;;;2.55;;
80425;SDS011;69766;51.476;5.704;2023-08-31T12:03:46;5.55;;;2.17;;
80425;SDS011;69766;51.476;5.704;2023-08-31T12:06:16;4.28;;;2.17;;
80425;SDS011;69766;51.476;5.704;2023-08-31T12:08:43;6.40;;;2.40;;
80425;SDS011;69766;51.476;5.704;2023-08-31T12:11:09;5.68;;;2.22;;
80425;SDS011;69766;51.476;5.704;2023-08-31T12:13:37;5.82;;;2.33;;
80425;SDS011;69766;51.476;5.704;2023-08-31T12:16:03;4.47;;;1.70;;
80425;SDS011;69766;51.476;5.704;2023-08-31T12:18:30;5.43;;;1.65;;
80425;SDS011;69766;51.476;5.704;2023-08-31T12:20:59;3.72;;;1.63;;
80425;SDS011;69766;51.476;5.704;2023-08-31T12:23:25;5.05;;;1.63;;
80425;SDS011;69766;51.476;5.704;2023-08-31T12:25:52;4.82;;;1.67;;
80425;SDS011;69766;51.476;5.704;2023-08-31T12:28:19;5.70;;;2.08;;
80425;SDS011;69766;51.476;5.704;2023-08-31T12:30:50;5.53;;;1.90;;
80425;SDS011;69766;51.476;5.704;2023-08-31T12:33:21;8.50;;;1.60;;
80425;SDS011;69766;51.476;5.704;2023-08-31T12:35:47;5.95;;;2.00;;
80425;SDS011;69766;51.476;5.704;2023-08-31T12:38:16;5.57;;;1.75;;
80425;SDS011;69766;51.476;5.704;2023-08-31T12:40:42;4.80;;;1.85;;
80425;SDS011;69766;51.476;5.704;2023-08-31T12:43:08;7.70;;;2.35;;
80425;SDS011;69766;51.476;5.704;2023-08-31T12:45:34;7.38;;;1.88;;
80425;SDS011;69766;51.476;5.704;2023-08-31T12:48:01;22.10;;;2.97;;
80425;SDS011;69766;51.476;5.704;2023-08-31T12:50:28;5.53;;;2.75;;
80425;SDS011;69766;51.476;5.704;2023-08-31T12:52:54;6.75;;;3.80;;
80425;SDS011;69766;51.476;5.704;2023-08-31T12:55:20;10.52;;;4.05;;
80425;SDS011;69766;51.476;5.704;2023-08-31T12:57:46;7.22;;;4.05;;
80425;SDS011;69766;51.476;5.704;2023-08-31T13:00:14;7.50;;;4.20;;
80425;SDS011;69766;51.476;5.704;2023-08-31T13:02:41;8.63;;;4.65;;
80425;SDS011;69766;51.476;5.704;2023-08-31T13:05:10;9.27;;;4.75;;
80425;SDS011;69766;51.476;5.704;2023-08-31T13:07:36;10.75;;;5.30;;
80425;SDS011;69766;51.476;5.704;2023-08-31T13:10:03;10.75;;;5.35;;
80425;SDS011;69766;51.476;5.704;2023-08-31T13:12:33;12.88;;;7.15;;
80425;SDS011;69766;51.476;5.704;2023-08-31T13:14:59;9.95;;;6.80;;
80425;SDS011;69766;51.476;5.704;2023-08-31T13:17:25;10.18;;;6.85;;
80425;SDS011;69766;51.476;5.704;2023-08-31T13:19:55;11.52;;;7.68;;
80425;SDS011;69766;51.476;5.704;2023-08-31T13:22:27;13.23;;;8.00;;
80425;SDS011;69766;51.476;5.704;2023-08-31T13:24:56;14.32;;;7.78;;
80425;SDS011;69766;51.476;5.704;2023-08-31T13:27:22;10.45;;;7.97;;
80425;SDS011;69766;51.476;5.704;2023-08-31T13:29:48;10.38;;;6.85;;
80425;SDS011;69766;51.476;5.704;2023-08-31T13:32:14;10.18;;;7.32;;
80425;SDS011;69766;51.476;5.704;2023-08-31T13:34:41;12.43;;;6.63;;
80425;SDS011;69766;51.476;5.704;2023-08-31T13:37:06;11.55;;;6.95;;
80425;SDS011;69766;51.476;5.704;2023-08-31T13:39:34;11.23;;;7.03;;
80425;SDS011;69766;51.476;5.704;2023-08-31T13:42:05;11.77;;;8.45;;
80425;SDS011;69766;51.476;5.704;2023-08-31T13:44:31;16.58;;;8.32;;
80425;SDS011;69766;51.476;5.704;2023-08-31T13:47:00;10.85;;;8.30;;
80425;SDS011;69766;51.476;5.704;2023-08-31T13:49:28;14.02;;;9.15;;
80425;SDS011;69766;51.476;5.704;2023-08-31T13:51:55;13.27;;;8.98;;
80425;SDS011;69766;51.476;5.704;2023-08-31T13:54:21;14.32;;;9.38;;
80425;SDS011;69766;51.476;5.704;2023-08-31T13:56:46;17.38;;;10.68;;
80425;SDS011;69766;51.476;5.704;2023-08-31T13:59:15;12.93;;;9.98;;
80425;SDS011;69766;51.476;5.704;2023-08-31T14:01:40;15.40;;;10.30;;
80425;SDS011;69766;51.476;5.704;2023-08-31T14:04:06;16.45;;;10.93;;
80425;SDS011;69766;51.476;5.704;2023-08-31T14:06:32;17.63;;;11.43;;
80425;SDS011;69766;51.476;5.704;2023-08-31T14:09:00;14.73;;;9.60;;
80425;SDS011;69766;51.476;5.704;2023-08-31T14:11:26;11.30;;;7.75;;
80425;SDS011;69766;51.476;5.704;2023-08-31T14:14:00;10.52;;;6.70;;
80425;SDS011;69766;51.476;5.704;2023-08-31T14:16:28;8.75;;;6.60;;
80425;SDS011;69766;51.476;5.704;2023-08-31T14:18:54;10.70;;;6.68;;
80425;SDS011;69766;51.476;5.704;2023-08-31T14:21:20;9.60;;;5.82;;
80425;SDS011;69766;51.476;5.704;2023-08-31T14:23:48;10.63;;;5.95;;
80425;SDS011;69766;51.476;5.704;2023-08-31T14:26:14;9.90;;;5.25;;
80425;SDS011;69766;51.476;5.704;2023-08-31T14:28:40;8.60;;;5.53;;
80425;SDS011;69766;51.476;5.704;2023-08-31T14:31:07;9.95;;;5.18;;
80425;SDS011;69766;51.476;5.704;2023-08-31T14:33:36;7.72;;;4.80;;
80425;SDS011;69766;51.476;5.704;2023-08-31T14:36:02;8.13;;;4.50;;
80425;SDS011;69766;51.476;5.704;2023-08-31T14:38:28;6.45;;;4.75;;
80425;SDS011;69766;51.476;5.704;2023-08-31T14:40:54;8.25;;;4.60;;
80425;SDS011;69766;51.476;5.704;2023-08-31T14:43:19;5.93;;;4.50;;
80425;SDS011;69766;51.476;5.704;2023-08-31T14:45:47;5.32;;;3.90;;
80425;SDS011;69766;51.476;5.704;2023-08-31T14:48:13;7.35;;;4.60;;
80425;SDS011;69766;51.476;5.704;2023-08-31T14:50:42;8.48;;;4.20;;
80425;SDS011;69766;51.476;5.704;2023-08-31T14:53:08;8.55;;;5.15;;
80425;SDS011;69766;51.476;5.704;2023-08-31T14:55:34;9.80;;;4.65;;
80425;SDS011;69766;51.476;5.704;2023-08-31T14:58:03;7.93;;;5.28;;
80425;SDS011;69766;51.476;5.704;2023-08-31T15:00:31;9.25;;;5.57;;
80425;SDS011;69766;51.476;5.704;2023-08-31T15:02:57;8.75;;;5.15;;
80425;SDS011;69766;51.476;5.704;2023-08-31T15:05:22;9.32;;;5.32;;
80425;SDS011;69766;51.476;5.704;2023-08-31T15:07:50;9.10;;;4.93;;
80425;SDS011;69766;51.476;5.704;2023-08-31T15:10:16;7.95;;;5.60;;
80425;SDS011;69766;51.476;5.704;2023-08-31T15:12:43;9.40;;;5.82;;
80425;SDS011;69766;51.476;5.704;2023-08-31T15:15:09;9.95;;;5.80;;
80425;SDS011;69766;51.476;5.704;2023-08-31T15:17:35;8.07;;;5.95;;
80425;SDS011;69766;51.476;5.704;2023-08-31T15:20:01;8.60;;;6.30;;
80425;SDS011;69766;51.476;5.704;2023-08-31T15:22:28;10.27;;;6.65;;
80425;SDS011;69766;51.476;5.704;2023-08-31T15:24:54;12.65;;;6.68;;
80425;SDS011;69766;51.476;5.704;2023-08-31T15:27:20;11.27;;;7.25;;
80425;SDS011;69766;51.476;5.704;2023-08-31T15:29:48;11.43;;;6.97;;
80425;SDS011;69766;51.476;5.704;2023-08-31T15:32:13;10.93;;;7.55;;
80425;SDS011;69766;51.476;5.704;2023-08-31T15:34:39;13.75;;;8.23;;
80425;SDS011;69766;51.476;5.704;2023-08-31T15:37:05;11.65;;;7.55;;
80425;SDS011;69766;51.476;5.704;2023-08-31T15:39:31;15.27;;;8.68;;
80425;SDS011;69766;51.476;5.704;2023-08-31T15:41:57;10.90;;;8.45;;